createdAt,value
2023-02-26T14:59:34.890Z,2.10
2023-02-26T15:02:16.627Z,2.10
2023-02-26T15:05:04.796Z,2.20
2023-02-26T15:07:50.601Z,2.20
2023-02-26T15:10:34.484Z,2.30
2023-02-26T15:13:16.392Z,2.30
2023-02-26T15:15:55.262Z,2.40
2023-02-26T15:18:38.722Z,2.60
2023-02-26T15:21:17.400Z,2.40
2023-02-26T15:23:47.743Z,2.50
2023-02-26T15:26:20.758Z,2.60
2023-02-26T15:28:49.398Z,2.50
2023-02-26T15:31:22.230Z,2.30
2023-02-26T15:33:50.769Z,2.30
2023-02-26T15:36:24.110Z,2.40
2023-02-26T15:38:56.892Z,2.50
2023-02-26T15:41:26.212Z,2.60
2023-02-26T15:43:58.097Z,2.40
2023-02-26T15:46:30.980Z,2.20
2023-02-26T15:49:03.345Z,2.00
2023-02-26T15:51:31.456Z,2.00
2023-02-26T15:54:03.098Z,2.00
2023-02-26T15:56:33.512Z,2.10
2023-02-26T15:59:03.229Z,2.20
2023-02-26T16:01:33.539Z,2.20
2023-02-26T16:04:05.883Z,2.40
2023-02-26T16:06:37.147Z,2.40
2023-02-26T16:09:07.559Z,2.20
2023-02-26T16:11:37.936Z,2.20
2023-02-26T16:14:07.548Z,2.00
2023-02-26T16:16:42.833Z,1.80
2023-02-26T16:19:15.529Z,1.70
2023-02-26T16:21:44.281Z,1.80
2023-02-26T16:24:17.083Z,1.80
2023-02-26T16:26:49.496Z,1.80
2023-02-26T16:29:22.087Z,1.70
2023-02-26T16:31:54.139Z,1.80
2023-02-26T16:34:32.029Z,1.80
2023-02-26T16:37:10.555Z,1.90
2023-02-26T16:39:45.221Z,2.00
2023-02-26T16:42:16.528Z,1.90
2023-02-26T16:44:49.570Z,2.00
2023-02-26T16:47:20.438Z,2.00
2023-02-26T16:49:49.154Z,2.00
2023-02-26T16:52:20.891Z,2.20
2023-02-26T16:54:57.215Z,2.20
2023-02-26T16:57:30.865Z,2.20
2023-02-26T17:00:04.573Z,2.20
2023-02-26T17:02:37.060Z,2.30
2023-02-26T17:05:16.260Z,2.30
2023-02-26T17:07:48.551Z,2.30
2023-02-26T17:10:22.581Z,2.20
2023-02-26T17:12:52.947Z,2.10
2023-02-26T17:15:30.626Z,2.10
2023-02-26T17:17:59.898Z,2.10
2023-02-26T17:20:29.248Z,2.10
2023-02-26T17:22:57.869Z,2.10
2023-02-26T17:25:29.217Z,2.10
2023-02-26T17:27:57.653Z,2.10
2023-02-26T17:30:29.735Z,2.00
2023-02-26T17:32:59.065Z,2.00
2023-02-26T17:35:27.544Z,2.00
2023-02-26T17:37:57.117Z,2.00
2023-02-26T17:40:27.758Z,2.00
2023-02-26T17:42:55.568Z,2.10
2023-02-26T17:45:23.472Z,2.10
2023-02-26T17:47:51.287Z,2.20
2023-02-26T17:50:29.331Z,2.10
2023-02-26T17:52:57.537Z,2.00
2023-02-26T17:55:25.645Z,1.90
2023-02-26T17:57:53.500Z,1.80
2023-02-26T18:00:21.793Z,1.80
2023-02-26T18:02:50.570Z,1.80
2023-02-26T18:05:19.167Z,1.80
2023-02-26T18:07:49.940Z,1.90
2023-02-26T18:10:20.408Z,1.90
2023-02-26T18:12:48.384Z,1.90
2023-02-26T18:15:17.015Z,2.00
2023-02-26T18:17:44.828Z,2.00
2023-02-26T18:20:18.965Z,2.00
2023-02-26T18:22:48.783Z,2.00
2023-02-26T18:25:17.189Z,2.10
2023-02-26T18:27:45.910Z,2.10
2023-02-26T18:30:23.512Z,2.00
2023-02-26T18:32:51.377Z,2.00
2023-02-26T18:35:19.242Z,2.00
2023-02-26T18:37:48.824Z,2.00
2023-02-26T18:40:18.612Z,2.00
2023-02-26T18:42:46.475Z,2.00
2023-02-26T18:45:14.324Z,2.00
2023-02-26T18:47:42.167Z,2.10
2023-02-26T18:50:13.940Z,2.10
2023-02-26T18:52:41.967Z,2.10
2023-02-26T18:55:12.818Z,2.10
2023-02-26T18:57:43.055Z,2.00
2023-02-26T19:00:13.851Z,2.10
2023-02-26T19:02:42.785Z,2.00
2023-02-26T19:05:11.470Z,2.00
2023-02-26T19:07:40.116Z,2.00
2023-02-26T19:10:11.013Z,2.00
2023-02-26T19:12:40.250Z,2.10
2023-02-26T19:15:09.733Z,2.10
2023-02-26T19:17:37.593Z,2.00
2023-02-26T19:20:06.488Z,2.00
2023-02-26T19:22:34.284Z,2.10
2023-02-26T19:25:02.070Z,2.10
2023-02-26T19:27:30.004Z,2.00
2023-02-26T19:29:59.451Z,2.00
2023-02-26T19:32:28.521Z,2.00
2023-02-26T19:34:56.632Z,2.10
2023-02-26T19:37:24.652Z,2.10
2023-02-26T19:39:52.446Z,2.00
2023-02-26T19:42:20.437Z,2.10
2023-02-26T19:44:48.275Z,2.10
2023-02-26T19:47:17.461Z,2.00
2023-02-26T19:49:45.349Z,2.00
2023-02-26T19:52:13.162Z,2.10
2023-02-26T19:54:41.001Z,2.00
2023-02-26T19:57:08.803Z,2.00
2023-02-26T19:59:36.588Z,2.00
2023-02-26T20:02:05.497Z,1.90
2023-02-26T20:04:34.742Z,1.90
2023-02-26T20:07:02.526Z,1.90
2023-02-26T20:09:30.364Z,1.90
2023-02-26T20:11:58.190Z,1.90
2023-02-26T20:14:26.037Z,1.90
2023-02-26T20:19:22.173Z,1.80
2023-02-26T20:21:51.552Z,1.80
2023-02-26T20:24:20.091Z,1.80
2023-02-26T20:26:48.919Z,1.90
2023-02-26T20:29:18.382Z,2.00
2023-02-26T20:31:49.425Z,1.90
2023-02-26T20:34:19.211Z,1.90
2023-02-26T20:36:48.266Z,1.90
2023-02-26T20:39:19.331Z,1.90
2023-02-26T20:41:47.138Z,1.90
2023-02-26T20:44:15.081Z,1.90
2023-02-26T20:46:42.990Z,1.80
2023-02-26T20:49:11.686Z,1.90
2023-02-26T20:51:40.194Z,1.70
2023-02-26T20:54:08.266Z,1.80
2023-02-26T20:56:37.603Z,1.80
2023-02-26T20:59:05.594Z,1.80
2023-02-26T21:01:36.221Z,1.80
2023-02-26T21:04:05.143Z,1.70
2023-02-26T21:06:33.783Z,1.70
2023-02-26T21:09:02.413Z,1.80
2023-02-26T21:11:31.436Z,1.80
2023-02-26T21:14:00.944Z,1.90
2023-02-26T21:16:29.396Z,1.70
2023-02-26T21:18:57.700Z,1.80
2023-02-26T21:21:25.499Z,1.90
2023-02-26T21:23:53.885Z,1.80
2023-02-26T21:26:22.932Z,1.70
2023-02-26T21:28:50.760Z,1.70
2023-02-26T21:31:21.866Z,1.70
2023-02-26T21:33:50.377Z,1.70
2023-02-26T21:36:18.211Z,1.70
2023-02-26T21:38:46.007Z,1.70
2023-02-26T21:41:13.810Z,1.70
2023-02-26T21:43:41.623Z,1.80
2023-02-26T21:46:09.445Z,1.70
2023-02-26T21:48:38.569Z,1.60
2023-02-26T21:51:06.781Z,1.60
2023-02-26T21:53:34.560Z,1.60
2023-02-26T21:56:02.367Z,1.60
2023-02-26T21:58:31.906Z,1.60
2023-02-26T22:01:00.174Z,1.50
2023-02-26T22:03:27.980Z,1.50
2023-02-26T22:05:57.226Z,1.50
2023-02-26T22:08:25.011Z,1.50
2023-02-26T22:10:52.770Z,1.50
2023-02-26T22:13:20.564Z,1.50
2023-02-26T22:15:48.520Z,1.60
2023-02-26T22:18:16.403Z,1.60
2023-02-26T22:20:44.213Z,1.60
2023-02-26T22:23:13.302Z,1.50
2023-02-26T22:25:41.375Z,1.50
2023-02-26T22:28:09.326Z,1.60
2023-02-26T22:30:37.406Z,1.60
2023-02-26T22:33:05.544Z,1.50
2023-02-26T22:35:33.565Z,1.60
2023-02-26T22:38:01.339Z,1.60
2023-02-26T22:40:30.528Z,1.50
2023-02-26T22:42:58.692Z,1.50
2023-02-26T22:45:26.537Z,1.50
2023-02-26T22:47:54.302Z,1.50
2023-02-26T22:50:22.097Z,1.50
2023-02-26T22:52:49.863Z,1.50
2023-02-26T22:55:17.910Z,1.50
2023-02-26T22:57:47.026Z,1.50
2023-02-26T23:00:18.630Z,1.50
2023-02-26T23:02:46.730Z,1.40
2023-02-26T23:05:15.146Z,1.50
2023-02-26T23:07:43.546Z,1.40
2023-02-26T23:10:14.133Z,1.50
2023-02-26T23:12:42.255Z,1.50
2023-02-26T23:15:12.394Z,1.50
2023-02-26T23:17:40.776Z,1.50
2023-02-26T23:20:10.281Z,1.50
2023-02-26T23:22:38.656Z,1.40
2023-02-26T23:25:07.027Z,1.40
2023-02-26T23:27:34.831Z,1.30
2023-02-26T23:30:03.217Z,1.40
2023-02-26T23:32:32.572Z,1.30
2023-02-26T23:35:00.397Z,1.40
2023-02-26T23:37:28.179Z,1.40
2023-02-26T23:39:55.949Z,1.30
2023-02-26T23:42:23.784Z,1.30
2023-02-26T23:44:51.592Z,1.30
2023-02-26T23:47:19.678Z,1.30
2023-02-26T23:49:48.793Z,1.40
2023-02-26T23:52:17.777Z,1.30
2023-02-26T23:54:45.886Z,1.40
2023-02-26T23:57:13.649Z,1.30
2023-02-26T23:59:41.421Z,1.40
